Time;durP1;ratioP1;P1;durP2;ratioP2;P2;SDS_P1;SDS_P2;PMS_P1;PMS_P2;Temp;Humidity;BMP_temperature;BMP_pressure;BME280_temperature;BME280_humidity;BME280_pressure;Samples;Min_cycle;Max_cycle;Signal;HPM_P1;HPM_P2
2021/10/12 00:00:45;;;;;;;2.53;1.37;;;8.50;99.90;8.40;100941.00;;;;4937614;28;94256;-69
2021/10/12 00:03:11;;;;;;;2.23;1.60;;;8.50;99.90;8.30;100930.00;;;;4938551;28;109024;-70
2021/10/12 00:05:37;;;;;;;1.87;1.47;;;8.40;99.90;8.20;100940.00;;;;4941475;28;109531;-69
2021/10/12 00:08:03;;;;;;;1.53;1.27;;;8.30;99.90;8.20;100926.00;;;;4937714;28;117998;-70
2021/10/12 00:10:29;;;;;;;3.77;1.10;;;8.30;99.90;8.10;100945.00;;;;4938075;28;88137;-69
2021/10/12 00:12:54;;;;;;;1.30;1.10;;;8.30;99.90;8.10;100939.00;;;;4937608;28;87624;-69
2021/10/12 00:15:20;;;;;;;1.33;1.20;;;8.20;99.90;8.10;100930.00;;;;4937427;28;108767;-69
2021/10/12 00:17:46;;;;;;;1.80;1.37;;;8.20;99.90;8.10;100933.00;;;;4919570;28;89417;-69
2021/10/12 00:20:12;;;;;;;2.43;1.33;;;8.20;99.90;8.00;100930.00;;;;4936715;28;118226;-68
2021/10/12 00:22:37;;;;;;;2.60;1.67;;;8.10;99.90;8.00;100926.00;;;;4938025;28;87956;-69
2021/10/12 00:25:05;;;;;;;3.67;1.67;;;8.10;99.90;8.00;100926.00;;;;4921966;28;94559;-69
2021/10/12 00:27:30;;;;;;;0.80;0.80;;;8.10;99.90;7.90;100921.00;;;;4919001;28;89316;-68
2021/10/12 00:29:56;;;;;;;2.17;1.27;;;8.00;99.90;7.90;100920.00;;;;4937493;28;89375;-70
2021/10/12 00:32:22;;;;;;;1.40;1.03;;;8.00;99.90;7.80;100924.00;;;;4937368;28;109732;-68
2021/10/12 00:34:47;;;;;;;6.10;1.30;;;7.90;99.90;7.70;100918.00;;;;4937215;28;87793;-70
2021/10/12 00:37:13;;;;;;;1.50;1.00;;;7.90;99.90;7.70;100918.00;;;;4936772;28;117543;-70
2021/10/12 00:39:42;;;;;;;4.40;1.47;;;7.80;99.90;7.70;100927.00;;;;4936563;28;117515;-68
2021/10/12 00:42:08;;;;;;;1.93;1.03;;;7.80;99.90;7.70;100919.00;;;;4942163;28;87792;-69
2021/10/12 00:44:35;;;;;;;2.10;1.03;;;7.80;99.90;7.60;100907.00;;;;4945620;28;107789;-69
2021/10/12 00:47:02;;;;;;;4.03;1.60;;;7.70;99.90;7.60;100908.00;;;;4936419;28;116549;-69
2021/10/12 00:49:27;;;;;;;2.00;1.53;;;7.70;99.90;7.50;100910.00;;;;4936010;28;99463;-68
2021/10/12 00:51:53;;;;;;;2.70;1.70;;;7.70;99.90;7.50;100908.00;;;;4918742;28;88757;-69
2021/10/12 00:54:20;;;;;;;2.10;1.37;;;7.60;99.90;7.50;100894.00;;;;4937471;28;87670;-69
2021/10/12 00:56:46;;;;;;;2.20;1.30;;;7.60;99.90;7.40;100895.00;;;;4937316;28;92448;-68
2021/10/12 00:59:12;;;;;;;1.63;1.53;;;7.60;99.90;7.40;100881.00;;;;4935775;28;115726;-68
2021/10/12 01:01:39;;;;;;;2.73;1.53;;;7.60;99.90;7.40;100885.00;;;;4936368;28;91857;-68
2021/10/12 01:04:06;;;;;;;4.73;1.20;;;7.50;99.90;7.40;100888.00;;;;4937479;28;87873;-67
2021/10/12 01:06:32;;;;;;;3.40;2.13;;;7.50;99.90;7.30;100898.00;;;;4936636;28;88342;-67
2021/10/12 01:08:58;;;;;;;3.37;2.00;;;7.50;99.90;7.30;100883.00;;;;4936674;28;111590;-70
2021/10/12 01:11:24;;;;;;;4.50;1.93;;;7.40;99.90;7.30;100893.00;;;;4936092;28;109264;-67
2021/10/12 01:13:50;;;;;;;4.70;1.70;;;7.40;99.90;7.30;100895.00;;;;4936701;28;95306;-68
2021/10/12 01:16:16;;;;;;;2.40;1.53;;;7.40;99.90;7.30;100893.00;;;;4935979;28;90455;-68
2021/10/12 01:19:07;;;;;;;3.17;1.57;;;7.40;99.90;7.20;100895.00;;;;4936952;28;88730;-69
2021/10/12 01:21:45;;;;;;;10.50;2.07;;;7.40;99.90;7.20;100885.00;;;;4918477;28;87703;-68
2021/10/12 01:24:13;;;;;;;4.67;2.03;;;7.40;99.90;7.20;100888.00;;;;4919398;28;87801;-69
2021/10/12 01:26:41;;;;;;;2.30;1.63;;;7.30;99.90;7.20;100885.00;;;;4918780;28;88163;-68
2021/10/12 01:29:10;;;;;;;2.00;1.73;;;7.30;99.90;7.20;100876.00;;;;4936844;28;88629;-69
2021/10/12 01:31:36;;;;;;;3.77;1.77;;;7.30;99.90;7.20;100877.00;;;;4935522;28;87749;-69
2021/10/12 01:34:12;;;;;;;4.23;1.80;;;7.30;99.90;7.10;100869.00;;;;4937649;28;87087;-69
2021/10/12 01:36:38;;;;;;;4.53;2.13;;;7.20;99.90;7.10;100873.00;;;;4918191;28;87919;-69
2021/10/12 01:39:03;;;;;;;3.73;1.90;;;7.20;99.90;7.10;100860.00;;;;4935291;28;89359;-69
2021/10/12 01:41:29;;;;;;;7.57;2.47;;;7.20;99.90;7.10;100865.00;;;;4935486;28;111805;-68
2021/10/12 01:43:57;;;;;;;5.60;2.23;;;7.20;99.90;7.10;100862.00;;;;4935707;28;107858;-69
2021/10/12 01:46:23;;;;;;;2.50;2.30;;;7.20;99.90;7.10;100858.00;;;;4918561;28;87884;-67
2021/10/12 01:48:48;;;;;;;2.80;1.93;;;7.20;99.90;7.10;100871.00;;;;4936676;28;92697;-68
2021/10/12 01:51:14;;;;;;;3.10;2.47;;;7.20;99.90;7.10;100853.00;;;;4935589;28;110319;-69
2021/10/12 01:53:41;;;;;;;2.77;1.77;;;7.20;99.90;7.10;100848.00;;;;4935534;28;108170;-68
2021/10/12 01:56:07;;;;;;;3.67;2.10;;;7.20;99.90;7.10;100848.00;;;;4934893;28;118248;-68
2021/10/12 01:58:34;;;;;;;4.90;2.27;;;7.70;99.90;7.00;100850.00;;;;4936481;28;88893;-69
2021/10/12 02:01:00;;;;;;;2.33;1.87;;;7.20;99.90;7.10;100836.00;;;;4936510;28;87607;-68
2021/10/12 02:03:26;;;;;;;5.40;1.87;;;7.20;99.90;7.00;100844.00;;;;4935491;28;87472;-68
2021/10/12 02:05:51;;;;;;;4.73;2.47;;;7.20;99.90;7.00;100833.00;;;;4935622;28;88676;-70
2021/10/12 02:08:17;;;;;;;3.27;2.43;;;7.10;99.90;7.00;100848.00;;;;4916946;28;116642;-69
2021/10/12 02:10:43;;;;;;;3.03;1.90;;;7.10;99.90;6.90;100845.00;;;;4935442;28;110609;-69
2021/10/12 02:13:09;;;;;;;7.57;2.43;;;7.10;99.90;6.90;100836.00;;;;4936018;28;88174;-69
2021/10/12 02:15:35;;;;;;;6.27;2.23;;;7.10;99.90;6.80;100831.00;;;;4935941;28;100558;-69
2021/10/12 02:18:00;;;;;;;5.73;2.07;;;7.00;99.90;6.80;100822.00;;;;4935455;28;103472;-69
2021/10/12 02:20:26;;;;;;;3.67;2.37;;;7.00;99.90;6.80;100813.00;;;;4935045;28;111513;-69
2021/10/12 02:22:52;;;;;;;2.23;2.00;;;6.90;99.90;6.80;100821.00;;;;4935732;28;89913;-69
2021/10/12 02:25:18;;;;;;;3.53;2.07;;;6.90;99.90;6.70;100818.00;;;;4916003;28;117572;-69
2021/10/12 02:27:43;;;;;;;4.27;1.97;;;6.80;99.90;6.70;100805.00;;;;4934993;28;117335;-69
2021/10/12 02:30:10;;;;;;;4.57;2.57;;;6.80;99.90;6.60;100796.00;;;;4934541;28;110354;-69
2021/10/12 02:32:36;;;;;;;4.53;2.40;;;6.80;99.90;6.60;100807.00;;;;4918067;28;87680;-69
2021/10/12 02:35:03;;;;;;;3.70;2.63;;;6.70;99.90;6.50;100792.00;;;;4935100;28;100739;-70
2021/10/12 02:37:28;;;;;;;3.90;2.43;;;6.70;99.90;6.50;100792.00;;;;4935951;28;87762;-68
2021/10/12 02:39:54;;;;;;;4.57;2.23;;;6.60;99.90;6.40;100784.00;;;;4935982;28;87595;-68
2021/10/12 02:42:20;;;;;;;4.57;2.40;;;6.60;99.90;6.40;100783.00;;;;4934480;28;108615;-68
2021/10/12 02:44:46;;;;;;;2.60;2.13;;;6.60;99.90;6.40;100782.00;;;;4934446;28;118785;-70
2021/10/12 02:47:12;;;;;;;5.47;2.67;;;6.50;99.90;6.30;100781.00;;;;4935680;28;87448;-71
2021/10/12 02:49:37;;;;;;;3.33;2.07;;;6.50;99.90;6.30;100779.00;;;;4935712;28;94450;-72
2021/10/12 02:52:04;;;;;;;4.30;2.37;;;6.50;99.90;6.30;100771.00;;;;4901619;28;88220;-71
2021/10/12 02:54:31;;;;;;;3.63;2.43;;;6.40;99.90;6.30;100765.00;;;;4936625;28;89705;-70
2021/10/12 02:56:56;;;;;;;4.17;2.00;;;6.40;99.90;6.20;100775.00;;;;4920932;28;94592;-69
2021/10/12 02:59:22;;;;;;;6.20;2.43;;;6.40;99.90;6.20;100778.00;;;;4937630;28;110302;-69
2021/10/12 03:01:48;;;;;;;1.87;1.43;;;6.40;99.90;6.20;100774.00;;;;4937939;28;108133;-69
2021/10/12 03:04:14;;;;;;;7.53;2.43;;;6.30;99.90;6.10;100768.00;;;;4937734;28;117872;-69
2021/10/12 03:06:41;;;;;;;3.97;2.73;;;6.30;99.90;6.10;100763.00;;;;4938451;28;87761;-69
2021/10/12 03:09:07;;;;;;;2.47;1.93;;;6.30;99.90;6.10;100758.00;;;;4938843;28;87895;-69
2021/10/12 03:11:33;;;;;;;3.53;1.90;;;6.30;99.90;6.10;100753.00;;;;4938010;28;108792;-69
2021/10/12 03:13:59;;;;;;;7.20;3.13;;;6.30;99.90;6.10;100757.00;;;;4937780;28;89598;-69
2021/10/12 03:16:24;;;;;;;4.67;2.90;;;6.30;99.90;6.10;100746.00;;;;4938120;28;117639;-68
2021/10/12 03:18:50;;;;;;;4.20;2.23;;;6.30;99.90;6.20;100746.00;;;;4937689;28;88996;-69
2021/10/12 03:21:17;;;;;;;3.40;2.27;;;6.30;99.90;6.20;100736.00;;;;4904550;28;87907;-68
2021/10/12 03:23:43;;;;;;;4.50;2.20;;;6.30;99.90;6.20;100738.00;;;;4938263;28;89203;-70
2021/10/12 03:26:09;;;;;;;3.43;2.40;;;6.30;99.90;6.20;100736.00;;;;4937530;28;88697;-69
2021/10/12 03:28:35;;;;;;;8.33;2.27;;;6.40;99.90;6.30;100734.00;;;;4938577;28;88186;-69
2021/10/12 03:31:00;;;;;;;2.60;1.90;;;6.40;99.90;6.30;100720.00;;;;4937930;28;108451;-69
2021/10/12 03:33:26;;;;;;;3.63;2.03;;;6.40;99.90;6.30;100722.00;;;;4936616;28;118745;-68
2021/10/12 03:36:00;;;;;;;7.37;2.90;;;6.50;99.90;6.40;100721.00;;;;4938595;28;117899;-68
2021/10/12 03:38:28;;;;;;;3.37;2.53;;;6.50;99.90;6.40;100713.00;;;;4940602;28;87775;-67
2021/10/12 03:40:54;;;;;;;5.83;2.60;;;6.50;99.90;6.40;100721.00;;;;4938297;28;87884;-69
2021/10/12 03:43:23;;;;;;;2.33;1.90;;;6.50;99.90;6.40;100714.00;;;;4919667;28;89529;-68
2021/10/12 03:45:49;;;;;;;8.83;3.23;;;6.50;99.90;6.40;100711.00;;;;4938408;28;89065;-68
2021/10/12 03:48:14;;;;;;;4.77;2.20;;;6.50;99.90;6.40;100712.00;;;;4937331;28;105793;-67
2021/10/12 03:50:40;;;;;;;2.73;1.80;;;6.40;99.90;6.40;100703.00;;;;4919483;28;108666;-67
2021/10/12 03:53:06;;;;;;;8.30;3.53;;;6.50;99.90;6.40;100706.00;;;;4937178;28;117234;-67
2021/10/12 03:55:32;;;;;;;3.80;2.33;;;6.50;99.90;6.40;100702.00;;;;4937678;28;100571;-68
2021/10/12 03:57:57;;;;;;;7.10;2.83;;;6.50;99.90;6.40;100710.00;;;;4920340;28;87892;-68
2021/10/12 04:00:23;;;;;;;3.23;2.27;;;6.50;99.90;6.40;100704.00;;;;4937365;28;107900;-67
2021/10/12 04:02:49;;;;;;;3.80;2.20;;;6.50;99.90;6.40;100700.00;;;;4936722;28;118752;-69
2021/10/12 04:05:15;;;;;;;3.57;2.40;;;6.50;99.90;6.40;100706.00;;;;4936516;28;118233;-67
2021/10/12 04:07:42;;;;;;;2.57;2.33;;;6.50;99.90;6.40;100705.00;;;;4937484;28;88710;-66
2021/10/12 04:10:08;;;;;;;3.23;2.13;;;6.50;99.90;6.30;100709.00;;;;4938347;28;87509;-66
2021/10/12 04:12:34;;;;;;;3.93;2.50;;;6.50;99.90;6.30;100708.00;;;;4937248;28;100747;-67
2021/10/12 04:15:00;;;;;;;4.23;2.70;;;6.40;99.90;6.30;100705.00;;;;4937984;28;89645;-66
2021/10/12 04:17:26;;;;;;;6.23;3.23;;;6.40;99.90;6.20;100712.00;;;;4938030;28;98349;-66
2021/10/12 04:19:51;;;;;;;3.90;2.67;;;6.40;99.90;6.20;100705.00;;;;4937243;28;88167;-66
2021/10/12 04:22:17;;;;;;;4.27;2.83;;;6.30;99.90;6.10;100710.00;;;;4937229;28;117396;-66
2021/10/12 04:24:43;;;;;;;6.50;3.40;;;6.30;99.90;6.10;100716.00;;;;4936195;28;117578;-67
2021/10/12 04:27:08;;;;;;;3.67;2.50;;;6.20;99.90;6.00;100715.00;;;;4916502;28;96290;-66
2021/10/12 04:29:34;;;;;;;3.47;2.63;;;6.30;99.90;6.00;100709.00;;;;4918143;28;87574;-66
2021/10/12 04:32:02;;;;;;;2.90;2.37;;;6.10;99.90;6.00;100699.00;;;;4916577;28;91215;-67
2021/10/12 04:34:28;;;;;;;5.53;1.97;;;6.80;99.90;5.90;100714.00;;;;4915820;28;89305;-67
2021/10/12 04:36:55;;;;;;;6.97;2.90;;;6.10;99.90;6.00;100705.00;;;;4918687;28;87745;-67
2021/10/12 04:39:21;;;;;;;1.93;1.67;;;6.10;99.90;6.00;100702.00;;;;4917887;28;87907;-68
2021/10/12 04:41:47;;;;;;;3.70;2.67;;;6.10;99.90;6.00;100696.00;;;;4916288;28;95255;-67
2021/10/12 04:44:13;;;;;;;4.30;2.53;;;6.10;99.90;6.00;100711.00;;;;4917578;28;88449;-67
2021/10/12 04:46:39;;;;;;;3.83;2.03;;;6.20;99.90;6.10;100698.00;;;;4917708;28;110291;-67
2021/10/12 04:49:06;;;;;;;7.07;2.67;;;6.20;99.90;6.10;100685.00;;;;4916882;28;87316;-67
2021/10/12 04:51:32;;;;;;;4.53;2.13;;;6.30;99.90;6.20;100679.00;;;;4917590;28;99688;-67
2021/10/12 04:53:58;;;;;;;3.83;2.60;;;6.40;99.90;6.10;100683.00;;;;4917921;28;88215;-67
2021/10/12 04:56:24;;;;;;;5.23;2.40;;;6.30;99.90;6.10;100682.00;;;;4916434;28;88979;-68
2021/10/12 04:58:50;;;;;;;2.87;2.53;;;6.30;99.90;6.10;100674.00;;;;4917247;28;87697;-68
2021/10/12 05:01:16;;;;;;;7.57;2.77;;;6.20;99.90;6.10;100668.00;;;;4916762;28;116877;-68
2021/10/12 05:03:41;;;;;;;5.37;2.93;;;6.20;99.90;6.10;100657.00;;;;4917082;28;91249;-67
2021/10/12 05:06:07;;;;;;;3.87;2.13;;;6.20;99.90;6.10;100658.00;;;;4917204;28;111195;-66
2021/10/12 05:08:33;;;;;;;3.13;2.03;;;6.10;99.90;6.10;100659.00;;;;4918298;28;88278;-67
2021/10/12 05:10:59;;;;;;;3.47;2.23;;;6.20;99.90;6.10;100656.00;;;;4916355;28;118590;-67
2021/10/12 05:13:25;;;;;;;3.37;2.37;;;6.10;99.90;6.10;100655.00;;;;4923887;28;108018;-67
2021/10/12 05:15:51;;;;;;;3.53;2.33;;;6.20;99.90;6.20;100649.00;;;;4923460;28;87533;-68
2021/10/12 05:18:21;;;;;;;6.63;2.90;;;6.30;99.90;6.20;100649.00;;;;4916721;28;109303;-66
2021/10/12 05:20:48;;;;;;;4.00;3.00;;;6.30;99.90;6.30;100649.00;;;;4915015;28;89498;-66
2021/10/12 05:23:14;;;;;;;3.27;2.13;;;6.40;99.90;6.30;100651.00;;;;4916743;28;97674;-67
2021/10/12 05:25:41;;;;;;;3.83;2.07;;;6.40;99.90;6.40;100638.00;;;;4914727;28;96208;-68
2021/10/12 05:28:08;;;;;;;8.33;3.53;;;6.50;99.90;6.50;100642.00;;;;4916946;28;87984;-67
2021/10/12 05:30:39;;;;;;;3.80;3.33;;;6.50;99.90;6.50;100649.00;;;;4917230;28;87775;-67
2021/10/12 05:33:07;;;;;;;8.83;4.40;;;6.60;99.90;6.60;100640.00;;;;4916871;28;87527;-67
2021/10/12 05:35:33;;;;;;;9.67;5.77;;;6.60;99.90;6.60;100643.00;;;;4914679;28;93315;-67
2021/10/12 05:37:59;;;;;;;11.20;4.87;;;6.70;99.90;6.70;100638.00;;;;4917381;28;86970;-67
2021/10/12 05:40:25;;;;;;;10.77;5.07;;;6.80;99.90;6.80;100635.00;;;;4915950;28;117233;-66
2021/10/12 05:42:50;;;;;;;7.37;5.13;;;6.80;99.90;6.80;100632.00;;;;4915751;28;117335;-68
2021/10/12 05:45:16;;;;;;;10.13;4.27;;;6.90;99.90;6.90;100628.00;;;;4897843;28;110588;-66
2021/10/12 05:47:42;;;;;;;4.10;3.67;;;6.90;99.90;6.90;100628.00;;;;4916127;28;109566;-65
2021/10/12 05:50:08;;;;;;;11.40;4.43;;;7.00;99.90;6.90;100619.00;;;;4916047;28;118372;-67
2021/10/12 05:52:36;;;;;;;8.03;3.60;;;7.00;99.90;6.90;100614.00;;;;4916937;28;88130;-66
2021/10/12 05:55:15;;;;;;;5.30;3.57;;;7.00;99.90;6.90;100613.00;;;;4916966;28;87652;-66
2021/10/12 06:00:25;;;;;;;5.60;3.87;;;7.00;99.90;6.80;100612.00;;;;4915365;28;87977;-66
2021/10/12 06:02:50;;;;;;;3.50;2.73;;;7.00;99.90;6.90;100615.00;;;;4916621;28;117672;-67
2021/10/12 06:05:16;;;;;;;5.00;2.90;;;6.90;99.90;6.90;100610.00;;;;4916153;28;96949;-66
2021/10/12 06:07:42;;;;;;;6.57;3.10;;;7.10;99.90;6.90;100604.00;;;;4916095;28;108272;-67
2021/10/12 06:10:07;;;;;;;6.40;3.30;;;7.00;99.90;6.90;100618.00;;;;4915053;28;89688;-67
2021/10/12 06:12:33;;;;;;;8.00;3.57;;;7.00;99.90;7.00;100618.00;;;;4916669;28;99663;-66
2021/10/12 06:14:59;;;;;;;8.37;4.17;;;7.00;99.90;7.10;100609.00;;;;4915803;28;110301;-67
2021/10/12 06:17:24;;;;;;;12.33;3.87;;;7.10;99.90;7.20;100607.00;;;;4916003;28;110149;-66
2021/10/12 06:19:50;;;;;;;8.30;4.20;;;7.20;99.90;7.40;100610.00;;;;4916451;28;88457;-66
2021/10/12 06:22:16;;;;;;;5.77;4.43;;;7.40;99.90;7.60;100611.00;;;;4915960;28;117472;-66
2021/10/12 06:24:41;;;;;;;6.50;3.30;;;7.60;99.90;7.70;100622.00;;;;4915948;28;87756;-66
2021/10/12 06:27:07;;;;;;;6.07;3.70;;;7.70;99.90;7.80;100604.00;;;;4936545;28;108881;-67
2021/10/12 06:29:33;;;;;;;9.13;3.80;;;7.60;99.90;7.90;100605.00;;;;4934503;28;88936;-66
2021/10/12 06:31:58;;;;;;;12.70;5.00;;;7.90;99.90;7.90;100608.00;;;;4935249;28;116648;-66
2021/10/12 06:34:24;;;;;;;9.83;4.37;;;8.00;99.90;8.00;100610.00;;;;4934184;28;111818;-67
2021/10/12 06:36:50;;;;;;;10.03;3.77;;;8.00;99.90;8.00;100598.00;;;;4933622;28;108102;-66
2021/10/12 06:39:15;;;;;;;6.83;3.60;;;8.00;99.90;8.00;100593.00;;;;4934296;28;119215;-67
2021/10/12 06:41:41;;;;;;;5.50;3.57;;;8.10;99.90;8.10;100606.00;;;;4926619;28;117981;-67
2021/10/12 06:44:07;;;;;;;7.07;4.07;;;8.20;99.90;8.30;100606.00;;;;4910889;28;110836;-66
2021/10/12 06:46:33;;;;;;;8.67;4.60;;;8.30;99.90;8.50;100604.00;;;;4939094;28;89208;-66
2021/10/12 06:48:59;;;;;;;5.53;3.90;;;8.40;99.90;8.70;100594.00;;;;4917295;28;88016;-67
2021/10/12 06:51:24;;;;;;;6.90;4.63;;;8.90;99.90;9.00;100604.00;;;;4935176;28;98404;-67
2021/10/12 06:53:51;;;;;;;6.73;3.70;;;8.90;99.90;9.10;100600.00;;;;4934367;28;111323;-67
2021/10/12 06:56:17;;;;;;;7.13;3.67;;;9.10;99.90;9.10;100605.00;;;;4934742;28;108303;-67
2021/10/12 06:58:43;;;;;;;7.27;3.30;;;9.10;99.90;9.10;100591.00;;;;4934753;28;89995;-66
2021/10/12 07:01:09;;;;;;;4.67;3.60;;;9.10;99.90;9.10;100592.00;;;;4935651;28;88575;-66
2021/10/12 07:03:35;;;;;;;6.50;2.93;;;9.20;99.90;9.10;100589.00;;;;4934113;28;108502;-65
2021/10/12 07:06:01;;;;;;;4.83;2.87;;;9.20;99.90;9.00;100577.00;;;;4934635;28;108799;-65
2021/10/12 07:08:27;;;;;;;5.47;3.17;;;9.10;99.90;9.00;100571.00;;;;4917181;28;88104;-65
2021/10/12 07:10:54;;;;;;;9.07;2.90;;;9.00;99.90;8.90;100570.00;;;;4935235;28;93704;-64
2021/10/12 07:13:24;;;;;;;4.60;2.97;;;9.00;99.90;8.90;100565.00;;;;4935314;28;87932;-65
2021/10/12 07:15:50;;;;;;;3.93;2.50;;;9.00;99.90;8.90;100559.00;;;;4935755;28;87025;-65
2021/10/12 07:18:18;;;;;;;5.40;2.93;;;8.90;99.90;8.80;100570.00;;;;4938084;28;88428;-64
2021/10/12 07:20:43;;;;;;;3.30;2.70;;;8.90;99.90;8.80;100555.00;;;;4939121;28;87745;-64
2021/10/12 07:23:09;;;;;;;4.50;2.93;;;8.90;99.90;8.80;100565.00;;;;4935111;28;110577;-64
2021/10/12 07:25:35;;;;;;;3.33;2.73;;;8.90;99.90;8.80;100565.00;;;;4934811;28;103242;-64
2021/10/12 07:28:00;;;;;;;10.03;3.20;;;8.90;99.90;8.90;100564.00;;;;4934520;28;96622;-64
2021/10/12 07:30:26;;;;;;;4.67;2.90;;;8.90;99.90;8.90;100558.00;;;;4935180;28;88211;-64
2021/10/12 07:32:52;;;;;;;6.43;2.63;;;8.90;99.90;8.90;100561.00;;;;4933437;28;110474;-65
2021/10/12 07:35:17;;;;;;;5.23;2.67;;;8.90;99.90;8.90;100565.00;;;;4933206;28;109100;-65
2021/10/12 07:37:43;;;;;;;6.60;2.93;;;8.90;99.90;8.90;100559.00;;;;4937704;28;117881;-63
2021/10/12 07:40:11;;;;;;;5.93;2.77;;;9.00;99.90;9.00;100567.00;;;;4938395;28;88332;-64
2021/10/12 07:42:37;;;;;;;4.37;3.00;;;9.00;99.90;9.00;100559.00;;;;4938134;28;94244;-63
2021/10/12 07:45:04;;;;;;;3.80;2.83;;;9.00;99.90;9.10;100561.00;;;;4938285;28;87679;-62
2021/10/12 07:47:29;;;;;;;6.13;2.20;;;9.10;99.90;9.20;100571.00;;;;4937687;28;89650;-63
2021/10/12 07:49:55;;;;;;;6.90;3.40;;;9.20;99.90;9.30;100569.00;;;;4937579;28;102266;-62
2021/10/12 07:52:21;;;;;;;3.60;2.83;;;9.30;99.90;9.40;100571.00;;;;4938233;28;87706;-62
2021/10/12 07:54:59;;;;;;;5.03;2.87;;;9.30;99.90;9.50;100572.00;;;;4937795;28;87650;-63
2021/10/12 07:57:25;;;;;;;4.13;2.53;;;9.50;99.90;9.60;100561.00;;;;4919295;28;89364;-62
2021/10/12 07:59:51;;;;;;;2.50;2.10;;;9.60;99.90;9.70;100566.00;;;;4937480;28;99916;-63
2021/10/12 08:02:16;;;;;;;3.43;2.40;;;9.70;99.90;9.80;100563.00;;;;4937586;28;109169;-62
2021/10/12 08:04:43;;;;;;;3.80;2.17;;;9.70;99.90;9.90;100569.00;;;;4933989;28;86821;-62
2021/10/12 08:07:10;;;;;;;3.37;2.33;;;9.80;99.90;9.90;100568.00;;;;4936504;28;108072;-61
2021/10/12 08:09:36;;;;;;;2.40;2.10;;;9.90;99.90;10.00;100574.00;;;;4937677;28;87782;-62
2021/10/12 08:12:04;;;;;;;4.60;2.37;;;10.00;99.90;10.10;100560.00;;;;4936831;28;88670;-62
2021/10/12 08:14:32;;;;;;;3.53;2.57;;;10.10;99.90;10.20;100554.00;;;;4937362;28;87870;-63
2021/10/12 08:16:57;;;;;;;2.90;1.83;;;10.10;99.90;10.20;100546.00;;;;4937586;28;87764;-62
2021/10/12 08:19:23;;;;;;;6.90;1.80;;;10.20;99.90;10.20;100549.00;;;;4936536;28;88597;-63
2021/10/12 08:21:49;;;;;;;3.23;1.67;;;10.20;99.90;10.30;100550.00;;;;4936682;28;108445;-63
2021/10/12 08:24:17;;;;;;;1.73;1.40;;;10.30;99.90;10.30;100549.00;;;;4936310;28;108573;-63
2021/10/12 08:26:43;;;;;;;2.27;1.97;;;10.30;99.90;10.30;100542.00;;;;4936497;28;88968;-63
2021/10/12 08:29:10;;;;;;;3.13;1.90;;;10.30;99.90;10.30;100533.00;;;;4938031;28;86941;-63
2021/10/12 08:31:35;;;;;;;4.40;1.73;;;10.30;99.90;10.30;100532.00;;;;4937435;28;87697;-62
2021/10/12 08:34:01;;;;;;;4.17;2.30;;;10.30;99.90;10.30;100523.00;;;;4936156;28;107615;-64
2021/10/12 08:36:27;;;;;;;5.33;2.20;;;10.30;99.90;10.30;100525.00;;;;4935849;28;117998;-63
2021/10/12 08:38:55;;;;;;;6.23;1.63;;;10.30;99.90;10.30;100512.00;;;;4935794;28;117916;-64
2021/10/12 08:41:25;;;;;;;3.63;1.97;;;10.30;99.90;10.20;100510.00;;;;4937797;28;87810;-63
2021/10/12 08:43:54;;;;;;;3.83;1.73;;;10.30;99.90;10.20;100519.00;;;;4936511;28;88004;-64
2021/10/12 08:46:26;;;;;;;3.37;1.70;;;10.30;99.90;10.20;100512.00;;;;4937280;28;87665;-63
2021/10/12 08:48:59;;;;;;;2.73;2.03;;;10.20;99.90;10.10;100510.00;;;;4919402;28;88710;-62
2021/10/12 08:51:26;;;;;;;3.53;2.23;;;10.10;99.90;10.00;100516.00;;;;4936791;28;93300;-63
2021/10/12 08:53:52;;;;;;;2.53;2.07;;;10.10;99.90;10.00;100493.00;;;;4936760;28;86960;-63
2021/10/12 08:56:18;;;;;;;3.13;1.87;;;10.10;99.90;10.00;100494.00;;;;4936308;28;113388;-63
2021/10/12 08:58:44;;;;;;;2.10;1.70;;;10.00;99.90;10.00;100505.00;;;;4937015;28;87881;-62
2021/10/12 09:01:17;;;;;;;4.80;2.10;;;10.00;99.90;9.90;100502.00;;;;4936076;28;109982;-61
2021/10/12 09:06:51;;;;;;;2.83;1.77;;;9.90;99.90;9.90;100506.00;;;;4939857;28;90483;-62
2021/10/12 09:09:17;;;;;;;1.90;1.40;;;10.00;99.90;10.00;100511.00;;;;4936780;28;87827;-60
2021/10/12 09:11:43;;;;;;;2.70;1.60;;;10.00;99.90;10.00;100504.00;;;;4935893;28;110785;-60
2021/10/12 09:14:09;;;;;;;1.40;1.23;;;10.00;99.90;10.00;100507.00;;;;4936816;28;87786;-63
2021/10/12 09:16:43;;;;;;;1.40;1.17;;;10.00;99.90;10.00;100492.00;;;;4935999;28;117839;-59
2021/10/12 09:19:18;;;;;;;1.63;1.20;;;9.90;99.90;10.00;100487.00;;;;4937503;28;87893;-62
2021/10/12 09:21:49;;;;;;;2.10;1.60;;;10.00;99.90;10.00;100478.00;;;;4936805;28;91654;-61
2021/10/12 09:24:21;;;;;;;1.60;1.30;;;10.00;99.90;10.00;100479.00;;;;4936812;28;88543;-62
2021/10/12 09:27:04;;;;;;;2.27;1.10;;;10.00;99.90;10.00;100475.00;;;;4936396;28;88848;-61
2021/10/12 09:29:38;;;;;;;1.90;1.40;;;10.00;99.90;10.00;100471.00;;;;4918581;28;88089;-61
2021/10/12 09:32:06;;;;;;;1.43;1.27;;;10.00;99.90;10.10;100461.00;;;;4937430;28;87833;-62
2021/10/12 09:34:32;;;;;;;2.60;1.10;;;10.10;99.90;10.10;100461.00;;;;4936361;28;88626;-59
2021/10/12 09:36:58;;;;;;;8.30;2.43;;;10.10;99.90;10.30;100465.00;;;;4936585;28;89282;-61
2021/10/12 09:39:42;;;;;;;3.33;1.90;;;10.20;99.90;10.40;100463.00;;;;4936520;28;91492;-62
2021/10/12 09:42:16;;;;;;;1.97;1.50;;;10.30;99.90;10.50;100464.00;;;;4937814;28;87758;-62
2021/10/12 09:44:58;;;;;;;3.23;1.73;;;10.50;99.90;10.60;100461.00;;;;4939945;28;86889;-62
2021/10/12 09:47:25;;;;;;;1.50;1.30;;;10.60;99.90;10.80;100456.00;;;;4935947;28;103009;-62
2021/10/12 09:50:06;;;;;;;1.63;1.23;;;10.70;99.90;11.00;100462.00;;;;4935560;28;88260;-63
2021/10/12 09:52:37;;;;;;;4.60;1.50;;;10.90;99.90;11.30;100451.00;;;;4936291;28;88856;-62
2021/10/12 09:55:03;;;;;;;1.03;0.90;;;11.10;99.90;11.50;100436.00;;;;4935745;28;87935;-63
2021/10/12 09:57:30;;;;;;;4.10;0.97;;;11.40;99.90;11.80;100447.00;;;;4936016;28;97438;-63
2021/10/12 09:59:56;;;;;;;0.97;0.70;;;11.60;99.90;11.90;100438.00;;;;4935372;28;88896;-64
2021/10/12 10:02:24;;;;;;;1.30;0.97;;;11.80;99.90;12.00;100433.00;;;;4936118;28;90451;-62
2021/10/12 10:04:53;;;;;;;1.00;0.90;;;11.90;99.90;12.10;100440.00;;;;4936032;28;87827;-63
2021/10/12 10:07:48;;;;;;;0.53;0.50;;;12.00;99.90;12.10;100450.00;;;;4935880;28;92373;-63
2021/10/12 10:10:16;;;;;;;1.40;1.10;;;12.10;99.90;12.10;100448.00;;;;4901281;28;90302;-63
2021/10/12 10:12:42;;;;;;;0.77;0.77;;;12.00;99.90;12.00;100450.00;;;;4936389;28;87784;-66
2021/10/12 10:15:08;;;;;;;1.97;1.00;;;12.00;99.90;12.00;100447.00;;;;4934776;28;95556;-65
2021/10/12 10:17:35;;;;;;;3.33;1.07;;;11.90;99.90;11.90;100443.00;;;;4935662;28;89996;-64
2021/10/12 10:20:06;;;;;;;3.30;1.00;;;11.90;99.90;11.80;100442.00;;;;4934812;28;118517;-62
2021/10/12 10:22:57;;;;;;;1.03;0.77;;;11.80;99.90;11.70;100435.00;;;;4918056;28;87899;-63
2021/10/12 10:25:30;;;;;;;0.97;0.83;;;11.80;99.90;11.60;100424.00;;;;4935180;28;87762;-63
2021/10/12 10:28:18;;;;;;;1.97;0.90;;;11.60;99.90;11.60;100415.00;;;;4935515;28;88058;-61
2021/10/12 10:30:50;;;;;;;1.47;0.90;;;11.60;99.90;11.60;100411.00;;;;4936112;28;87839;-64
2021/10/12 10:33:31;;;;;;;7.00;0.87;;;11.60;99.90;11.50;100414.00;;;;4936480;28;87549;-64
2021/10/12 10:36:05;;;;;;;0.83;0.73;;;11.60;99.90;11.60;100406.00;;;;4917039;28;87026;-64
2021/10/12 10:38:43;;;;;;;0.90;0.70;;;11.50;99.90;11.60;100408.00;;;;4916104;28;100603;-65
2021/10/12 10:41:10;;;;;;;1.73;0.50;;;11.60;99.90;11.60;100396.00;;;;4916189;28;88332;-66
2021/10/12 10:43:56;;;;;;;1.10;0.87;;;11.60;99.90;11.50;100403.00;;;;4927429;28;89054;-63
2021/10/12 10:46:31;;;;;;;2.43;1.20;;;11.60;99.90;11.40;100406.00;;;;4936270;28;87919;-64
2021/10/12 10:49:21;;;;;;;2.40;0.80;;;11.50;99.90;11.40;100408.00;;;;4935047;28;92020;-64
2021/10/12 10:52:02;;;;;;;1.13;0.80;;;11.40;99.90;11.30;100408.00;;;;4936152;28;87818;-65
2021/10/12 10:54:41;;;;;;;1.07;0.97;;;11.40;99.90;11.20;100399.00;;;;4935224;28;87991;-65
2021/10/12 10:57:16;;;;;;;1.03;0.97;;;11.30;99.90;11.00;100397.00;;;;4935717;28;87845;-66
2021/10/12 10:59:42;;;;;;;1.07;0.87;;;11.10;99.90;10.90;100398.00;;;;4934903;28;88083;-66
2021/10/12 11:02:28;;;;;;;1.53;1.00;;;11.00;99.90;10.60;100400.00;;;;4935520;28;93949;-67